createdAt,value
2023-11-25T00:00:13.601Z,95056.59
2023-11-25T00:02:42.026Z,95049.91
2023-11-25T00:05:10.914Z,95051.00
2023-11-25T00:07:40.743Z,95050.47
2023-11-25T00:10:10.039Z,95053.09
2023-11-25T00:12:38.777Z,95046.91
2023-11-25T00:15:07.937Z,95054.59
2023-11-25T00:17:36.381Z,95053.53
2023-11-25T00:20:06.215Z,95043.56
2023-11-25T00:22:35.695Z,95033.78
2023-11-25T00:25:06.170Z,95035.72
2023-11-25T00:27:34.570Z,95035.41
2023-11-25T00:30:03.895Z,95035.28
2023-11-25T00:32:32.350Z,95014.13
2023-11-25T00:35:01.738Z,95024.38
2023-11-25T00:37:30.328Z,95025.09
2023-11-25T00:40:00.369Z,95026.84
2023-11-25T00:42:30.429Z,95026.03
2023-11-25T00:44:59.661Z,95014.47
2023-11-25T00:47:28.832Z,95022.16
2023-11-25T00:49:57.781Z,95029.84
2023-11-25T00:52:26.226Z,95027.09
2023-11-25T00:54:54.645Z,95028.56
2023-11-25T00:57:23.009Z,95032.84
2023-11-25T00:59:52.738Z,95031.72
2023-11-25T01:02:21.244Z,95040.34
2023-11-25T01:04:50.160Z,95033.34
2023-11-25T01:07:20.000Z,95042.16
2023-11-25T01:09:50.874Z,95055.84
2023-11-25T01:12:19.205Z,95046.91
2023-11-25T01:14:47.511Z,95047.44
2023-11-25T01:17:17.465Z,95044.53
2023-11-25T01:19:45.885Z,95038.47
2023-11-25T01:22:14.306Z,95031.47
2023-11-25T01:24:42.972Z,95036.69
2023-11-25T01:27:11.423Z,95035.84
2023-11-25T01:29:39.758Z,95032.44
2023-11-25T01:32:08.460Z,95035.72
2023-11-25T01:34:38.237Z,95049.59
2023-11-25T01:37:08.276Z,95050.28
2023-11-25T01:39:36.699Z,95054.38
2023-11-25T01:42:05.661Z,95055.03
2023-11-25T01:44:34.522Z,95060.25
2023-11-25T01:47:03.149Z,95070.72
2023-11-25T01:49:31.783Z,95060.09
2023-11-25T01:52:01.929Z,95053.50
2023-11-25T01:54:30.598Z,95042.81
2023-11-25T01:57:02.999Z,95029.13
2023-11-25T01:59:32.509Z,95040.53
2023-11-25T02:02:02.685Z,95027.19
2023-11-25T02:04:33.835Z,95031.81
2023-11-25T02:07:04.510Z,95043.28
2023-11-25T02:09:32.853Z,95046.44
2023-11-25T02:12:03.051Z,95066.19
2023-11-25T02:14:31.749Z,95019.38
2023-11-25T02:17:01.562Z,95037.22
2023-11-25T02:19:30.880Z,95064.75
2023-11-25T02:21:59.703Z,95078.53
2023-11-25T02:24:31.192Z,95069.09
2023-11-25T02:27:01.274Z,95072.97
2023-11-25T02:29:30.135Z,95079.84
2023-11-25T02:31:59.774Z,95081.06
2023-11-25T02:34:29.048Z,95102.59
2023-11-25T02:36:58.958Z,95106.72
2023-11-25T02:39:28.805Z,95119.03
2023-11-25T02:41:59.487Z,95118.59
2023-11-25T02:44:28.897Z,95141.63
2023-11-25T02:46:57.355Z,95138.88
2023-11-25T02:49:26.724Z,95138.19
2023-11-25T02:51:56.510Z,95144.53
2023-11-25T02:54:25.886Z,95160.97
2023-11-25T02:56:54.418Z,95163.31
2023-11-25T02:59:24.272Z,95165.75
2023-11-25T03:01:54.082Z,95165.06
2023-11-25T03:04:24.771Z,95178.25
2023-11-25T03:06:53.473Z,95188.66
2023-11-25T03:09:23.132Z,95197.44
2023-11-25T03:11:51.514Z,95198.09
2023-11-25T03:14:20.440Z,95222.09
2023-11-25T03:16:50.630Z,95230.59
2023-11-25T03:19:19.409Z,95234.69
2023-11-25T03:21:47.904Z,95241.56
2023-11-25T03:24:17.573Z,95253.63
2023-11-25T03:26:46.048Z,95262.41
2023-11-25T03:29:14.579Z,95272.53
2023-11-25T03:31:44.060Z,95276.00
2023-11-25T03:34:14.037Z,95281.03
2023-11-25T03:36:42.403Z,95297.38
2023-11-25T03:39:11.154Z,95296.41
2023-11-25T03:41:39.673Z,95303.00
2023-11-25T03:44:08.644Z,95307.94
2023-11-25T03:46:37.197Z,95317.00
2023-11-25T03:49:06.111Z,95314.22
2023-11-25T03:51:35.940Z,95328.22
2023-11-25T03:54:04.596Z,95322.34
2023-11-25T03:56:33.300Z,95322.47
2023-11-25T03:59:01.626Z,95331.94
2023-11-25T04:01:30.224Z,95330.41
2023-11-25T04:03:58.658Z,95334.81
2023-11-25T04:06:27.555Z,95345.22
2023-11-25T04:08:57.530Z,95355.66
2023-11-25T04:11:25.874Z,95357.56
2023-11-25T04:13:57.821Z,95371.81
2023-11-25T04:16:26.617Z,95377.97
2023-11-25T04:18:56.447Z,95373.63
2023-11-25T04:21:24.805Z,95375.38
2023-11-25T04:23:54.026Z,95390.44
2023-11-25T04:26:25.918Z,95392.38
2023-11-25T04:28:54.930Z,95395.94
2023-11-25T04:31:23.410Z,95401.28
2023-11-25T04:33:51.994Z,95415.97
2023-11-25T04:36:20.382Z,95413.06
2023-11-25T04:38:48.781Z,95423.50
2023-11-25T04:41:17.255Z,95426.38
2023-11-25T04:43:46.992Z,95427.34
2023-11-25T04:46:15.537Z,95441.16
2023-11-25T04:48:43.935Z,95445.56
2023-11-25T04:51:12.336Z,95447.22
2023-11-25T04:53:40.710Z,95449.97
2023-11-25T04:56:09.631Z,95447.47
2023-11-25T04:58:39.904Z,95459.56
2023-11-25T05:01:09.743Z,95462.28
2023-11-25T05:03:38.223Z,95472.72
2023-11-25T05:06:10.779Z,95472.59
2023-11-25T05:08:39.180Z,95493.97
2023-11-25T05:11:10.361Z,95481.09
2023-11-25T05:13:38.917Z,95491.34
2023-11-25T05:16:09.333Z,95492.19
2023-11-25T05:18:37.782Z,95497.25
2023-11-25T05:21:09.135Z,95498.78
2023-11-25T05:23:37.525Z,95503.03
2023-11-25T05:26:06.496Z,95498.09
2023-11-25T05:28:35.053Z,95507.84
2023-11-25T05:31:03.493Z,95499.16
2023-11-25T05:33:34.239Z,95501.09
2023-11-25T05:36:03.537Z,95496.97
2023-11-25T05:38:31.967Z,95511.66
2023-11-25T05:41:00.604Z,95510.69
2023-11-25T05:43:29.023Z,95513.28
2023-11-25T05:45:59.316Z,95512.06
2023-11-25T05:48:28.450Z,95520.56
2023-11-25T05:50:59.106Z,95517.41
2023-11-25T05:53:27.476Z,95525.50
2023-11-25T05:55:57.056Z,95532.34
2023-11-25T05:58:25.746Z,95532.22
2023-11-25T06:00:55.490Z,95539.09
2023-11-25T06:03:24.732Z,95546.06
2023-11-25T06:05:53.205Z,95539.34
2023-11-25T06:08:22.950Z,95544.56
2023-11-25T06:10:51.393Z,95533.44
2023-11-25T06:13:21.123Z,95535.22
2023-11-25T06:15:49.589Z,95536.56
2023-11-25T06:18:21.403Z,95548.06
2023-11-25T06:20:49.998Z,95546.41
2023-11-25T06:23:18.704Z,95538.59
2023-11-25T06:25:48.639Z,95541.31
2023-11-25T06:28:18.434Z,95544.06
2023-11-25T06:30:47.479Z,95541.59
2023-11-25T06:33:15.924Z,95545.28
2023-11-25T06:35:44.305Z,95545.41
2023-11-25T06:38:12.725Z,95552.25
2023-11-25T06:40:41.525Z,95560.66
2023-11-25T06:43:13.202Z,95566.81
2023-11-25T06:45:44.785Z,95567.91
2023-11-25T06:48:13.194Z,95569.56
2023-11-25T06:50:41.605Z,95572.41
2023-11-25T06:53:10.038Z,95568.41
2023-11-25T06:55:42.401Z,95573.75
2023-11-25T06:58:12.613Z,95569.75
2023-11-25T07:00:41.876Z,95579.34
2023-11-25T07:03:10.855Z,95583.47
2023-11-25T07:05:39.332Z,95589.38
2023-11-25T07:08:07.733Z,95588.16
2023-11-25T07:10:37.327Z,95591.56
2023-11-25T07:13:07.134Z,95595.97
2023-11-25T07:15:36.921Z,95597.34
2023-11-25T07:18:08.088Z,95594.50
2023-11-25T07:20:36.845Z,95598.63
2023-11-25T07:23:05.231Z,95606.31
2023-11-25T07:25:33.934Z,95612.47
2023-11-25T07:28:02.314Z,95615.47
2023-11-25T07:30:30.874Z,95610.66
2023-11-25T07:33:00.671Z,95607.19
2023-11-25T07:35:29.081Z,95599.16
2023-11-25T07:37:57.806Z,95601.50
2023-11-25T07:40:26.250Z,95610.00
2023-11-25T07:42:54.642Z,95603.84
2023-11-25T07:45:22.976Z,95611.66
2023-11-25T07:47:51.367Z,95608.91
2023-11-25T07:50:22.941Z,95604.53
2023-11-25T07:52:52.605Z,95616.50
2023-11-25T07:55:21.535Z,95600.47
2023-11-25T07:57:50.240Z,95607.47
2023-11-25T08:00:20.868Z,95620.72
2023-11-25T08:02:49.800Z,95614.72
2023-11-25T08:05:24.813Z,95615.53
2023-11-25T08:07:56.233Z,95618.13
2023-11-25T08:10:32.385Z,95614.81
2023-11-25T08:13:01.062Z,95622.66
2023-11-25T08:15:30.150Z,95619.22
2023-11-25T08:17:59.628Z,95622.53
2023-11-25T08:20:28.403Z,95616.63
2023-11-25T08:22:58.239Z,95621.56
2023-11-25T08:25:26.986Z,95615.13
2023-11-25T08:27:55.330Z,95616.91
2023-11-25T08:30:23.723Z,95613.63
2023-11-25T08:32:52.233Z,95619.91
2023-11-25T08:35:21.128Z,95617.69
2023-11-25T08:37:49.685Z,95631.28
2023-11-25T08:40:22.903Z,95633.06
2023-11-25T08:42:51.727Z,95638.38
2023-11-25T08:45:20.774Z,95632.94
2023-11-25T08:47:50.555Z,95649.97
2023-11-25T08:50:20.079Z,95642.84
2023-11-25T08:52:50.038Z,95647.53
2023-11-25T08:55:21.448Z,95657.72
2023-11-25T08:57:50.527Z,95650.97
2023-11-25T09:00:21.674Z,95649.56
2023-11-25T09:02:52.830Z,95648.63
2023-11-25T09:05:24.029Z,95650.84
2023-11-25T09:07:53.217Z,95649.16
2023-11-25T09:10:24.283Z,95648.34
2023-11-25T09:12:53.812Z,95653.03
2023-11-25T09:15:23.490Z,95652.03
2023-11-25T09:17:52.527Z,95653.53
2023-11-25T09:20:22.213Z,95649.97
2023-11-25T09:22:52.330Z,95656.72
2023-11-25T09:25:21.048Z,95656.47
2023-11-25T09:27:51.415Z,95655.94
2023-11-25T09:30:20.126Z,95660.63
2023-11-25T09:32:48.522Z,95651.31
2023-11-25T09:35:17.204Z,95654.88
2023-11-25T09:37:46.066Z,95666.78
2023-11-25T09:40:16.861Z,95659.47
2023-11-25T09:42:48.049Z,95664.13
2023-11-25T09:45:18.561Z,95656.19
2023-11-25T09:47:47.331Z,95661.41
2023-11-25T09:50:16.216Z,95658.78
2023-11-25T09:52:51.335Z,95660.00
2023-11-25T09:55:21.950Z,95660.00
2023-11-25T09:57:52.526Z,95657.31
2023-11-25T10:00:22.822Z,95657.75
2023-11-25T10:02:54.741Z,95652.38
2023-11-25T10:05:23.587Z,95657.47
2023-11-25T10:07:52.021Z,95649.41
2023-11-25T10:10:25.393Z,95652.44
2023-11-25T10:12:54.417Z,95650.94
2023-11-25T10:15:24.559Z,95641.19
2023-11-25T10:17:56.226Z,95644.63
2023-11-25T10:20:24.903Z,95640.38
2023-11-25T10:22:57.943Z,95647.56
2023-11-25T10:25:28.815Z,95640.00
2023-11-25T10:27:57.676Z,95650.06
2023-11-25T10:30:29.687Z,95652.78
2023-11-25T10:33:01.636Z,95656.34
2023-11-25T10:35:30.044Z,95656.22
2023-11-25T10:37:58.600Z,95661.72
2023-11-25T10:40:28.663Z,95661.00
2023-11-25T10:42:57.742Z,95664.84
2023-11-25T10:45:29.066Z,95660.59
2023-11-25T10:47:59.532Z,95666.34
2023-11-25T10:50:28.411Z,95649.69
2023-11-25T10:52:59.420Z,95656.81
2023-11-25T10:55:30.215Z,95651.72
2023-11-25T10:58:00.311Z,95649.69
2023-11-25T11:00:31.918Z,95652.72
2023-11-25T11:03:06.856Z,95651.56
2023-11-25T11:05:43.167Z,95641.97
2023-11-25T11:08:18.552Z,95647.63
2023-11-25T11:10:55.359Z,95655.44
2023-11-25T11:13:28.237Z,95646.94
2023-11-25T11:16:01.494Z,95650.22
2023-11-25T11:18:36.729Z,95652.44
2023-11-25T11:21:08.269Z,95654.66
2023-11-25T11:23:39.054Z,95648.22
2023-11-25T11:26:24.725Z,95643.00
2023-11-25T11:29:05.482Z,95651.63
2023-11-25T11:32:00.186Z,95649.72
2023-11-25T11:34:30.630Z,95642.03
2023-11-25T11:36:59.625Z,95647.41
2023-11-25T11:39:34.871Z,95643.81
2023-11-25T11:42:29.036Z,95653.72
2023-11-25T11:45:00.543Z,95643.97
2023-11-25T11:47:30.531Z,95639.88
2023-11-25T11:49:59.112Z,95642.91
2023-11-25T11:52:27.563Z,95639.34
2023-11-25T11:54:55.939Z,95632.19
2023-11-25T11:57:24.341Z,95630.00
2023-11-25T12:00:00.978Z,95629.78
2023-11-25T12:02:32.014Z,95633.88
2023-11-25T12:05:02.290Z,95617.97
2023-11-25T12:07:31.236Z,95616.03
2023-11-25T12:09:59.728Z,95626.59
2023-11-25T12:12:28.312Z,95626.59
2023-11-25T12:14:56.658Z,95629.59
2023-11-25T12:17:25.381Z,95625.34
2023-11-25T12:19:55.976Z,95623.13
2023-11-25T12:22:24.590Z,95627.84
2023-11-25T12:24:53.501Z,95617.53
2023-11-25T12:27:24.691Z,95618.47
2023-11-25T12:29:53.178Z,95615.47
2023-11-25T12:32:21.683Z,95609.94
2023-11-25T12:34:50.220Z,95598.94
2023-11-25T12:37:20.315Z,95604.81
2023-11-25T12:39:50.136Z,95597.84
2023-11-25T12:42:24.674Z,95596.47
2023-11-25T12:44:55.177Z,95583.59
2023-11-25T12:47:23.757Z,95590.88
2023-11-25T12:50:05.743Z,95572.59
2023-11-25T12:52:35.817Z,95591.69
2023-11-25T12:55:08.373Z,95576.19
2023-11-25T12:57:36.956Z,95589.38
2023-11-25T13:00:10.039Z,95587.44
2023-11-25T13:02:46.566Z,95584.81
2023-11-25T13:05:25.228Z,95577.81
2023-11-25T13:07:55.505Z,95570.00
2023-11-25T13:10:24.418Z,95569.16
2023-11-25T13:12:52.956Z,95565.19
2023-11-25T13:15:21.353Z,95572.03
2023-11-25T13:17:49.839Z,95570.66
2023-11-25T13:20:18.306Z,95570.78
2023-11-25T13:22:46.793Z,95567.34
2023-11-25T13:25:16.674Z,95564.59
2023-11-25T13:27:45.126Z,95563.91
2023-11-25T13:30:13.714Z,95550.72
2023-11-25T13:32:42.425Z,95548.53
2023-11-25T13:35:10.890Z,95558.53
2023-11-25T13:37:39.303Z,95568.69
2023-11-25T13:40:16.157Z,95553.75
2023-11-25T13:42:45.917Z,95577.09
2023-11-25T13:45:14.516Z,95572.00
2023-11-25T13:47:43.458Z,95587.22
2023-11-25T13:50:12.586Z,95569.94
2023-11-25T13:52:40.983Z,95560.44
2023-11-25T13:55:11.235Z,95564.03
2023-11-25T13:57:39.607Z,95562.38
2023-11-25T14:00:10.988Z,95549.44
2023-11-25T14:02:39.651Z,95545.09
2023-11-25T14:05:10.097Z,95534.38
2023-11-25T14:07:39.179Z,95528.88
2023-11-25T14:10:09.282Z,95532.31
2023-11-25T14:12:38.685Z,95541.94
2023-11-25T14:15:09.636Z,95533.81
2023-11-25T14:17:40.761Z,95530.25
2023-11-25T14:20:20.268Z,95529.84
2023-11-25T14:22:49.892Z,95522.72
2023-11-25T14:25:20.430Z,95527.25
2023-11-25T14:27:50.116Z,95520.38
2023-11-25T14:30:23.784Z,95518.72
2023-11-25T14:32:52.362Z,95516.00
2023-11-25T14:35:21.928Z,95511.88
2023-11-25T14:37:50.391Z,95510.91
2023-11-25T14:40:19.740Z,95515.16
2023-11-25T14:42:48.230Z,95514.34
2023-11-25T14:45:16.706Z,95515.16
2023-11-25T14:47:46.673Z,95504.88
2023-11-25T14:50:15.164Z,95505.56
2023-11-25T14:52:43.781Z,95493.19
2023-11-25T14:55:12.892Z,95492.38
2023-11-25T14:57:41.637Z,95492.50
2023-11-25T15:00:13.886Z,95490.31
2023-11-25T15:02:42.772Z,95480.00
2023-11-25T15:05:14.960Z,95493.06
2023-11-25T15:07:43.598Z,95494.16
2023-11-25T15:10:13.055Z,95490.88
2023-11-25T15:12:41.581Z,95499.50
2023-11-25T15:15:10.923Z,95494.56
2023-11-25T15:17:39.393Z,95498.94
2023-11-25T15:20:09.401Z,95494.69
2023-11-25T15:22:39.300Z,95501.81
2023-11-25T15:25:08.542Z,95493.19
2023-11-25T15:27:36.934Z,95485.22
2023-11-25T15:30:10.301Z,95496.47
2023-11-25T15:32:41.188Z,95486.34
2023-11-25T15:35:10.580Z,95489.88
2023-11-25T15:37:40.417Z,95479.44
2023-11-25T15:40:10.205Z,95473.69
2023-11-25T15:42:38.737Z,95464.63
2023-11-25T15:45:08.003Z,95457.09
2023-11-25T15:47:37.049Z,95456.09
2023-11-25T15:50:07.101Z,95466.53
2023-11-25T15:52:35.633Z,95462.28
2023-11-25T15:55:05.987Z,95458.84
2023-11-25T15:57:34.456Z,95458.03
2023-11-25T16:00:09.535Z,95464.91
2023-11-25T16:02:38.126Z,95458.72
2023-11-25T16:05:09.171Z,95474.09
2023-11-25T16:07:37.608Z,95469.56
2023-11-25T16:10:08.685Z,95458.31
2023-11-25T16:12:37.048Z,95468.75
2023-11-25T16:15:07.108Z,95467.91
2023-11-25T16:17:35.528Z,95480.13
2023-11-25T16:20:05.018Z,95468.19
2023-11-25T16:22:33.497Z,95486.03
2023-11-25T16:25:02.776Z,95478.06
2023-11-25T16:27:34.354Z,95486.81
2023-11-25T16:30:04.220Z,95484.22
2023-11-25T16:32:32.739Z,95492.88
2023-11-25T16:35:01.356Z,95482.44
2023-11-25T16:37:29.813Z,95473.78
2023-11-25T16:39:59.348Z,95482.72
2023-11-25T16:42:28.259Z,95477.63
2023-11-25T16:44:58.018Z,95484.50
2023-11-25T16:47:26.435Z,95487.09
2023-11-25T16:49:56.527Z,95484.50
2023-11-25T16:52:24.999Z,95494.91
2023-11-25T16:54:53.456Z,95486.00
2023-11-25T16:57:21.873Z,95488.75
2023-11-25T16:59:50.445Z,95482.72
2023-11-25T17:02:21.363Z,95486.13
2023-11-25T17:04:49.984Z,95482.16
2023-11-25T17:07:18.525Z,95494.63
2023-11-25T17:09:47.567Z,95481.47
2023-11-25T17:12:16.009Z,95491.75
2023-11-25T17:14:44.463Z,95482.16
2023-11-25T17:17:13.633Z,95491.63
2023-11-25T17:19:43.458Z,95490.94
2023-11-25T17:22:11.910Z,95490.94
2023-11-25T17:24:42.224Z,95483.81
2023-11-25T17:27:10.638Z,95481.88
2023-11-25T17:29:39.071Z,95484.50
2023-11-25T17:32:10.201Z,95498.47
2023-11-25T17:34:39.184Z,95492.31
2023-11-25T17:37:08.996Z,95486.28
2023-11-25T17:39:39.407Z,95481.88
2023-11-25T17:42:08.906Z,95481.75
2023-11-25T17:44:37.353Z,95479.97
2023-11-25T17:47:07.794Z,95479.84
2023-11-25T17:49:36.251Z,95479.69
2023-11-25T17:52:05.669Z,95478.63
2023-11-25T17:54:35.393Z,95482.72
2023-11-25T17:57:03.860Z,95489.84
2023-11-25T17:59:33.445Z,95482.84
2023-11-25T18:02:01.942Z,95487.66
2023-11-25T18:04:30.412Z,95489.69
2023-11-25T18:06:58.792Z,95484.47
2023-11-25T18:09:27.153Z,95495.03
2023-11-25T18:11:56.900Z,95507.25
2023-11-25T18:14:25.583Z,95495.03
2023-11-25T18:16:55.240Z,95494.78
2023-11-25T18:19:23.822Z,95490.38
2023-11-25T18:21:52.587Z,95478.97
2023-11-25T18:24:21.403Z,95488.72
2023-11-25T18:26:49.779Z,95487.78
2023-11-25T18:29:19.889Z,95474.75
2023-11-25T18:31:48.289Z,95469.53
2023-11-25T18:34:16.753Z,95478.16
2023-11-25T18:36:45.185Z,95475.44
2023-11-25T18:39:15.042Z,95474.59
2023-11-25T18:41:43.569Z,95477.47
2023-11-25T18:44:12.329Z,95481.03
2023-11-25T18:46:42.326Z,95477.47
2023-11-25T18:49:11.982Z,95491.44
2023-11-25T18:51:41.487Z,95475.69
2023-11-25T18:54:09.891Z,95479.81
2023-11-25T18:56:38.321Z,95474.59
2023-11-25T18:59:07.806Z,95473.75
2023-11-25T19:01:37.373Z,95491.88
2023-11-25T19:04:07.918Z,95463.50
2023-11-25T19:06:36.386Z,95464.69
2023-11-25T19:09:05.825Z,95463.31
2023-11-25T19:11:35.917Z,95463.88
2023-11-25T19:14:04.541Z,95479.38
2023-11-25T19:16:33.508Z,95477.72
2023-11-25T19:19:02.089Z,95469.91
2023-11-25T19:21:31.840Z,95467.47
2023-11-25T19:24:00.227Z,95478.81
2023-11-25T19:26:28.631Z,95485.13
2023-11-25T19:28:57.344Z,95484.72
2023-11-25T19:31:25.828Z,95482.00
2023-11-25T19:33:54.556Z,95482.94
2023-11-25T19:36:23.396Z,95492.66
2023-11-25T19:38:55.732Z,95492.66
2023-11-25T19:41:26.109Z,95482.25
2023-11-25T19:43:54.560Z,95494.91
2023-11-25T19:46:22.009Z,95493.81
2023-11-25T19:48:50.483Z,95493.38
2023-11-25T19:51:18.876Z,95497.66
2023-11-25T19:53:50.782Z,95505.22
2023-11-25T19:56:22.081Z,95504.13
2023-11-25T19:58:50.539Z,95500.41
2023-11-25T20:01:19.148Z,95521.16
2023-11-25T20:03:47.752Z,95510.03
2023-11-25T20:06:16.158Z,95522.63
2023-11-25T20:08:44.729Z,95521.53
2023-11-25T20:11:13.235Z,95517.50
2023-11-25T20:13:43.075Z,95520.97
2023-11-25T20:16:11.947Z,95524.38
2023-11-25T20:18:41.132Z,95527.56
2023-11-25T20:21:10.176Z,95516.84
2023-11-25T20:23:38.767Z,95520.72
2023-11-25T20:26:07.451Z,95522.81
2023-11-25T20:28:36.239Z,95516.50
2023-11-25T20:31:06.233Z,95533.50
2023-11-25T20:33:36.967Z,95535.16
2023-11-25T20:36:06.450Z,95520.47
2023-11-25T20:38:34.869Z,95512.78
2023-11-25T20:41:03.518Z,95522.66
2023-11-25T20:43:31.970Z,95521.16
2023-11-25T20:46:01.209Z,95522.25
2023-11-25T20:48:31.149Z,95524.97
2023-11-25T20:51:04.452Z,95518.09
2023-11-25T20:53:33.355Z,95518.09
2023-11-25T20:56:01.830Z,95516.19
2023-11-25T20:58:32.349Z,95517.72
2023-11-25T21:01:03.727Z,95519.34
2023-11-25T21:03:33.658Z,95523.63
2023-11-25T21:06:02.400Z,95516.88
2023-11-25T21:08:31.149Z,95520.31
2023-11-25T21:10:59.575Z,95526.34
2023-11-25T21:13:27.971Z,95536.53
2023-11-25T21:15:56.420Z,95532.00
2023-11-25T21:18:24.877Z,95537.91
2023-11-25T21:20:55.348Z,95531.03
2023-11-25T21:23:23.779Z,95541.59
2023-11-25T21:25:52.237Z,95539.81
2023-11-25T21:28:20.704Z,95537.22
2023-11-25T21:30:49.608Z,95541.59
2023-11-25T21:33:18.062Z,95531.16
2023-11-25T21:35:47.826Z,95535.16
2023-11-25T21:38:18.062Z,95532.41
2023-11-25T21:40:46.584Z,95526.94
2023-11-25T21:43:15.160Z,95538.88
2023-11-25T21:45:43.794Z,95530.91
2023-11-25T21:48:12.315Z,95536.13
2023-11-25T21:50:41.662Z,95536.25
2023-11-25T21:53:10.285Z,95543.16
2023-11-25T21:55:40.078Z,95544.91
2023-11-25T21:58:08.444Z,95537.09
2023-11-25T22:00:36.886Z,95541.59
2023-11-25T22:03:06.495Z,95541.34
2023-11-25T22:05:34.962Z,95545.97
2023-11-25T22:08:03.473Z,95543.50
2023-11-25T22:10:36.141Z,95551.31
2023-11-25T22:13:06.047Z,95549.13
2023-11-25T22:15:34.937Z,95561.47
2023-11-25T22:18:03.919Z,95553.91
2023-11-25T22:20:32.367Z,95556.50
2023-11-25T22:23:01.744Z,95564.31
2023-11-25T22:25:36.040Z,95561.47
2023-11-25T22:28:09.874Z,95561.19
2023-11-25T22:30:38.343Z,95561.34
2023-11-25T22:33:07.315Z,95556.94
2023-11-25T22:35:47.455Z,95552.69
2023-11-25T22:38:19.443Z,95548.44
2023-11-25T22:40:49.029Z,95558.03
2023-11-25T22:43:18.884Z,95551.88
2023-11-25T22:45:47.276Z,95555.97
2023-11-25T22:48:15.713Z,95558.59
2023-11-25T22:50:44.140Z,95559.56
2023-11-25T22:53:13.545Z,95556.94
2023-11-25T22:55:42.156Z,95558.59
2023-11-25T22:58:10.567Z,95553.38
2023-11-25T23:00:51.096Z,95547.22
2023-11-25T23:03:20.921Z,95563.53
2023-11-25T23:05:49.820Z,95571.13
2023-11-25T23:08:18.341Z,95568.34
2023-11-25T23:10:46.826Z,95575.22
2023-11-25T23:13:15.372Z,95573.44
2023-11-25T23:15:45.246Z,95569.44
2023-11-25T23:18:13.735Z,95565.22
2023-11-25T23:20:42.059Z,95579.31
2023-11-25T23:23:10.579Z,95586.44
2023-11-25T23:25:38.978Z,95581.22
2023-11-25T23:28:07.419Z,95586.31
2023-11-25T23:30:35.841Z,95588.09
2023-11-25T23:33:05.672Z,95577.00
2023-11-25T23:35:34.112Z,95577.94
2023-11-25T23:38:03.066Z,95585.75
2023-11-25T23:40:31.842Z,95581.34
2023-11-25T23:43:00.258Z,95587.25
2023-11-25T23:45:28.854Z,95586.75
2023-11-25T23:47:57.329Z,95588.69
2023-11-25T23:50:27.202Z,95584.28
2023-11-25T23:52:55.690Z,95585.38
2023-11-25T23:55:24.275Z,95583.31
2023-11-25T23:57:52.657Z,95582.78
